Terminal Aerodrome Forecast
Issued by NWS

Home | Current Version | Previous Version | Text Only | Print | Product List | Glossary On
Versions: 1 2 3 4 5 6 7 8 9 10 11 12 13 14 15 16 17 18 19 20 21 22 23 24
000
FTUS45 KGJT 202329
TAFVEL
TAF
KVEL 202329Z 2100/2124 33008KT P6SM FEW110 BKN200
     FM210600 31004KT P6SM FEW110 BKN200
     FM211800 14004KT P6SM FEW120 SCT200
     FM212000 26005KT P6SM FEW110 SCT250
     FM212100 32005KT P6SM FEW120 SCT200=

USA.gov is the U.S. government's official web portal to all federal, state and local government web resources and services.